createdAt,value
2023-03-20T00:02:01.067Z,19.67
2023-03-20T00:07:22.905Z,19.65
2023-03-20T00:12:46.954Z,19.63
2023-03-20T00:18:19.119Z,19.62
2023-03-20T00:23:40.829Z,19.57
2023-03-20T00:29:05.216Z,19.55
2023-03-20T00:34:29.825Z,19.52
2023-03-20T00:39:51.570Z,19.49
2023-03-20T00:45:19.633Z,19.48
2023-03-20T00:50:41.684Z,19.46
2023-03-20T00:56:04.261Z,19.43
2023-03-20T01:01:26.297Z,19.41
2023-03-20T01:06:48.210Z,19.39
2023-03-20T01:12:14.556Z,19.37
2023-03-20T01:17:36.304Z,19.35
2023-03-20T01:22:58.082Z,19.32
2023-03-20T01:28:23.394Z,19.32
2023-03-20T01:33:46.303Z,19.30
2023-03-20T01:39:09.845Z,19.29
2023-03-20T01:44:33.852Z,19.27
2023-03-20T01:50:17.126Z,19.26
2023-03-20T01:55:41.876Z,19.22
2023-03-20T02:01:06.588Z,19.21
2023-03-20T02:06:29.463Z,19.19
2023-03-20T02:11:52.537Z,19.20
2023-03-20T02:17:14.947Z,19.16
2023-03-20T02:22:49.699Z,19.15
2023-03-20T02:28:26.679Z,19.14
2023-03-20T02:34:17.573Z,19.12
2023-03-20T02:39:54.089Z,19.12
2023-03-20T02:45:47.953Z,19.07
2023-03-20T02:51:19.924Z,19.07
2023-03-20T02:56:50.136Z,19.05
2023-03-20T03:02:20.841Z,19.04
2023-03-20T03:07:47.200Z,19.04
2023-03-20T03:13:16.162Z,19.02
2023-03-20T03:18:41.221Z,19.00
2023-03-20T03:24:03.851Z,18.98
2023-03-20T03:29:31.516Z,18.99
2023-03-20T03:34:54.684Z,18.96
2023-03-20T03:40:28.217Z,18.96
2023-03-20T03:45:57.301Z,18.93
2023-03-20T03:51:24.353Z,18.90
2023-03-20T03:56:49.009Z,18.90
2023-03-20T04:02:11.115Z,18.88
2023-03-20T04:07:32.988Z,18.87
2023-03-20T04:12:54.823Z,18.86
2023-03-20T04:18:18.459Z,18.85
2023-03-20T04:23:40.187Z,18.83
2023-03-20T04:29:02.316Z,18.81
2023-03-20T04:34:25.037Z,18.81
2023-03-20T04:39:46.739Z,18.79
2023-03-20T04:45:09.359Z,18.76
2023-03-20T04:50:31.362Z,18.75
2023-03-20T04:55:53.131Z,18.74
2023-03-20T05:01:14.929Z,18.73
2023-03-20T05:06:36.930Z,18.72
2023-03-20T05:11:58.621Z,18.71
2023-03-20T05:17:21.619Z,18.70
2023-03-20T05:22:43.686Z,18.68
2023-03-20T05:28:05.804Z,18.68
2023-03-20T05:33:27.588Z,18.66
2023-03-20T05:38:49.336Z,18.65
2023-03-20T05:44:11.359Z,18.64
2023-03-20T05:49:33.020Z,18.63
2023-03-20T05:54:54.753Z,18.61
2023-03-20T06:00:17.530Z,18.61
2023-03-20T06:05:39.444Z,18.59
2023-03-20T06:11:01.211Z,18.73
2023-03-20T06:16:22.991Z,18.99
2023-03-20T06:21:44.695Z,19.18
2023-03-20T06:27:06.521Z,19.31
2023-03-20T06:32:28.266Z,19.35
2023-03-20T06:37:50.036Z,19.38
2023-03-20T06:43:12.642Z,19.37
2023-03-20T06:48:34.742Z,19.32
2023-03-20T06:53:56.844Z,19.28
2023-03-20T06:59:19.094Z,19.22
2023-03-20T07:04:41.407Z,19.16
2023-03-20T07:10:04.647Z,19.11
2023-03-20T07:15:27.424Z,19.05
2023-03-20T07:20:49.159Z,19.03
2023-03-20T07:26:10.910Z,18.98
2023-03-20T07:31:33.098Z,18.95
2023-03-20T07:36:54.792Z,18.90
2023-03-20T07:42:16.948Z,18.86
2023-03-20T07:47:38.752Z,18.83
2023-03-20T07:53:00.737Z,18.84
2023-03-20T07:58:22.694Z,18.83
2023-03-20T08:03:44.434Z,18.90
2023-03-20T08:09:06.868Z,19.03
2023-03-20T08:14:28.688Z,19.12
2023-03-20T08:19:50.452Z,19.24
2023-03-20T08:25:12.552Z,19.34
2023-03-20T08:30:34.262Z,19.40
2023-03-20T08:35:59.673Z,19.41
2023-03-20T08:41:21.481Z,19.38
2023-03-20T08:46:44.981Z,19.34
2023-03-20T08:52:07.161Z,19.30
2023-03-20T08:57:28.978Z,19.26
2023-03-20T09:02:51.580Z,19.22
2023-03-20T09:08:14.184Z,19.17
2023-03-20T09:13:36.123Z,19.17
2023-03-20T09:18:57.841Z,19.21
2023-03-20T09:24:19.599Z,19.24
2023-03-20T09:29:42.474Z,19.26
2023-03-20T09:35:05.262Z,19.29
2023-03-20T09:40:38.646Z,19.31
2023-03-20T09:46:28.305Z,19.35
2023-03-20T09:51:59.594Z,19.36
2023-03-20T09:57:26.307Z,19.36
2023-03-20T10:02:53.242Z,19.36
2023-03-20T10:08:17.593Z,19.34
2023-03-20T10:13:52.476Z,19.34
2023-03-20T10:19:28.031Z,19.33
2023-03-20T10:25:01.578Z,19.32
2023-03-20T10:30:45.284Z,19.30
2023-03-20T10:36:39.367Z,19.28
2023-03-20T10:42:04.036Z,19.31
2023-03-20T10:47:31.182Z,19.30
2023-03-20T10:52:56.200Z,19.30
2023-03-20T10:58:26.918Z,19.29
2023-03-20T11:03:48.682Z,19.26
2023-03-20T11:09:25.044Z,19.26
2023-03-20T11:14:46.942Z,19.21
2023-03-20T11:20:11.146Z,19.22
2023-03-20T11:25:37.165Z,19.19
2023-03-20T11:31:05.411Z,19.19
2023-03-20T11:36:33.400Z,19.21
2023-03-20T11:41:57.322Z,19.17
2023-03-20T11:47:25.294Z,19.24
2023-03-20T11:52:47.029Z,19.32
2023-03-20T11:58:16.762Z,19.44
2023-03-20T12:03:45.510Z,19.45
2023-03-20T12:09:36.562Z,19.43
2023-03-20T12:15:13.360Z,19.37
2023-03-20T12:20:38.559Z,19.33
2023-03-20T12:26:10.280Z,19.33
2023-03-20T12:31:47.011Z,19.33
2023-03-20T12:37:13.475Z,19.28
2023-03-20T12:43:01.328Z,19.22
2023-03-20T12:48:31.634Z,19.19
2023-03-20T12:54:10.744Z,19.15
2023-03-20T12:59:48.538Z,19.12
2023-03-20T13:05:54.124Z,19.11
2023-03-20T13:11:29.838Z,19.10
2023-03-20T13:17:10.552Z,19.06
2023-03-20T13:22:52.333Z,19.03
2023-03-20T13:28:43.100Z,18.98
2023-03-20T13:34:31.978Z,18.96
2023-03-20T13:40:14.918Z,18.93
2023-03-20T13:45:41.959Z,18.87
2023-03-20T13:51:25.246Z,18.85
2023-03-20T13:57:19.591Z,18.83
2023-03-20T14:03:09.738Z,18.82
2023-03-20T14:08:38.560Z,18.79
2023-03-20T14:14:08.655Z,18.79
2023-03-20T14:19:30.933Z,18.74
2023-03-20T14:25:04.044Z,18.73
2023-03-20T14:30:31.765Z,18.73
2023-03-20T14:36:19.330Z,18.71
2023-03-20T14:42:09.029Z,18.68
2023-03-20T14:47:49.046Z,18.65
2023-03-20T14:53:21.222Z,18.62
2023-03-20T14:59:06.967Z,18.60
2023-03-20T15:04:42.153Z,18.57
2023-03-20T15:10:05.534Z,18.56
2023-03-20T15:15:31.791Z,18.56
2023-03-20T15:20:56.525Z,18.54
2023-03-20T15:26:20.676Z,18.54
2023-03-20T15:31:42.994Z,18.53
2023-03-20T15:37:04.816Z,18.52
2023-03-20T15:42:27.800Z,18.57
2023-03-20T15:47:49.635Z,18.67
2023-03-20T15:53:19.255Z,18.75
2023-03-20T15:58:43.073Z,18.82
2023-03-20T16:04:05.206Z,18.85
2023-03-20T16:09:28.066Z,18.90
2023-03-20T16:14:51.683Z,18.91
2023-03-20T16:20:15.851Z,18.93
2023-03-20T16:25:38.142Z,18.90
2023-03-20T16:31:09.478Z,18.95
2023-03-20T16:36:34.442Z,18.98
2023-03-20T16:42:28.476Z,19.00
2023-03-20T16:47:50.419Z,19.10
2023-03-20T16:53:15.997Z,19.23
2023-03-20T16:58:41.270Z,19.31
2023-03-20T17:04:23.751Z,19.41
2023-03-20T17:10:18.152Z,19.41
2023-03-20T17:15:39.929Z,19.47
2023-03-20T17:21:01.634Z,19.51
2023-03-20T17:26:23.701Z,19.51
2023-03-20T17:31:46.218Z,19.51
2023-03-20T17:37:13.913Z,19.57
2023-03-20T17:42:35.680Z,19.69
2023-03-20T17:47:57.403Z,19.85
2023-03-20T17:53:25.382Z,19.94
2023-03-20T17:58:47.357Z,20.01
2023-03-20T18:04:09.243Z,20.05
2023-03-20T18:09:33.929Z,20.04
2023-03-20T18:14:55.774Z,20.02
2023-03-20T18:20:25.882Z,19.99
2023-03-20T18:25:47.566Z,19.96
2023-03-20T18:31:11.111Z,19.92
2023-03-20T18:36:33.224Z,19.86
2023-03-20T18:41:54.929Z,19.79
2023-03-20T18:47:16.831Z,19.75
2023-03-20T18:52:38.621Z,19.68
2023-03-20T18:58:04.176Z,19.64
2023-03-20T19:03:25.954Z,19.57
2023-03-20T19:08:48.727Z,19.54
2023-03-20T19:14:10.423Z,19.50
2023-03-20T19:19:32.155Z,19.45
2023-03-20T19:24:53.965Z,19.51
2023-03-20T19:30:27.326Z,19.69
2023-03-20T19:36:04.997Z,19.84
2023-03-20T19:41:28.921Z,19.98
2023-03-20T19:46:50.839Z,20.07
2023-03-20T19:52:29.194Z,20.21
2023-03-20T19:57:52.002Z,20.47
2023-03-20T20:03:19.997Z,20.84
2023-03-20T20:08:48.469Z,21.19
2023-03-20T20:14:14.647Z,21.51
2023-03-20T20:19:36.707Z,21.69
2023-03-20T20:24:58.572Z,21.82
2023-03-20T20:30:21.080Z,21.87
2023-03-20T20:36:10.604Z,21.82
2023-03-20T20:41:26.179Z,21.70
2023-03-20T20:46:47.933Z,21.58
2023-03-20T20:52:10.237Z,21.45
2023-03-20T20:57:32.422Z,21.31
2023-03-20T21:02:54.291Z,21.17
2023-03-20T21:08:18.636Z,21.05
2023-03-20T21:13:40.950Z,20.90
2023-03-20T21:19:02.832Z,20.80
2023-03-20T21:24:34.398Z,20.69
2023-03-20T21:29:57.852Z,20.56
2023-03-20T21:35:19.571Z,20.45
2023-03-20T21:40:42.374Z,20.36
2023-03-20T21:52:41.907Z,20.20
2023-03-20T21:58:16.970Z,20.13
2023-03-20T22:03:18.355Z,20.05
2023-03-20T22:15:20.113Z,19.92
2023-03-20T22:21:06.200Z,19.84
2023-03-20T22:27:05.307Z,19.78
2023-03-20T22:32:18.614Z,19.72
2023-03-20T22:48:44.316Z,19.57
2023-03-20T22:54:06.549Z,19.52
2023-03-20T22:59:28.559Z,19.49
2023-03-20T23:04:52.661Z,19.46
2023-03-20T23:10:14.592Z,19.44
2023-03-20T23:15:36.333Z,19.40
2023-03-20T23:20:59.163Z,19.36
2023-03-20T23:26:22.065Z,19.33
2023-03-20T23:31:43.817Z,19.29
2023-03-20T23:37:05.556Z,19.27
2023-03-20T23:42:30.765Z,19.25
2023-03-20T23:47:52.921Z,19.21
2023-03-20T23:53:20.748Z,19.19
2023-03-20T23:58:54.966Z,19.17
